Worthington, Iowa
Current Conditions -  °F | °C
As of 6:15 PM on Sunday 25 Jan 2015 (Local Time) from KMXO Reporting Station
Clear Clear  
Wind Chill: -9°   Ceiling: Unl
Heat Index: -5°   Visibility: 10mi
Dew Point: -9°   Wind: 6mph
Humidity: 74%   Direction: NA
Pressure: 30.03"   Gusts: 12mph
Location:  42.4°N, 91.12°W
Report Text: KMXO 260015Z AUTO VRB05G10KT 10SM CLR M05/M09 A3003 RMK AO2
Loading
Personal Weather Stations






























Interactive Weather Map New forecast layout! Learn more

10-Day Weather Forecast

Advertisements
Track Severe Weather on mobile